sensor_id;sensor_type;location;lat;lon;timestamp;P1;durP1;ratioP1;P2;durP2;ratioP2
321;SDS011;148;51.480;7.208;2024-02-26T17:39:54;5.60;;;4.20;;
321;SDS011;148;51.480;7.208;2024-02-26T17:42:19;7.80;;;4.30;;
321;SDS011;148;51.480;7.208;2024-02-26T17:54:29;6.10;;;4.50;;
321;SDS011;148;51.480;7.208;2024-02-26T17:56:55;5.80;;;4.40;;
321;SDS011;148;51.480;7.208;2024-02-26T17:59:22;6.80;;;4.30;;
321;SDS011;148;51.480;7.208;2024-02-26T18:01:47;7.23;;;4.97;;
321;SDS011;148;51.480;7.208;2024-02-26T18:04:13;5.30;;;3.90;;
321;SDS011;148;51.480;7.208;2024-02-26T18:06:38;7.40;;;4.55;;
321;SDS011;148;51.480;7.208;2024-02-26T18:11:33;7.10;;;4.00;;
321;SDS011;148;51.480;7.208;2024-02-26T18:13:59;5.10;;;3.70;;
321;SDS011;148;51.480;7.208;2024-02-26T18:16:25;6.43;;;4.40;;
321;SDS011;148;51.480;7.208;2024-02-26T18:18:52;6.70;;;4.30;;
321;SDS011;148;51.480;7.208;2024-02-26T18:21:18;8.13;;;4.50;;
321;SDS011;148;51.480;7.208;2024-02-26T18:23:46;5.60;;;4.30;;
321;SDS011;148;51.480;7.208;2024-02-26T18:26:15;5.10;;;3.70;;
321;SDS011;148;51.480;7.208;2024-02-26T18:28:44;6.27;;;4.60;;
321;SDS011;148;51.480;7.208;2024-02-26T18:33:37;7.90;;;5.00;;
321;SDS011;148;51.480;7.208;2024-02-26T18:36:04;8.37;;;5.00;;
321;SDS011;148;51.480;7.208;2024-02-26T18:38:30;10.00;;;5.10;;
321;SDS011;148;51.480;7.208;2024-02-26T18:40:56;12.80;;;6.00;;
321;SDS011;148;51.480;7.208;2024-02-26T18:43:22;6.00;;;4.90;;
321;SDS011;148;51.480;7.208;2024-02-26T18:45:47;7.93;;;5.80;;
321;SDS011;148;51.480;7.208;2024-02-26T18:48:13;10.80;;;5.70;;
321;SDS011;148;51.480;7.208;2024-02-26T18:50:39;11.20;;;6.50;;
321;SDS011;148;51.480;7.208;2024-02-26T18:53:05;9.53;;;6.20;;
321;SDS011;148;51.480;7.208;2024-02-26T18:55:30;9.40;;;6.10;;
321;SDS011;148;51.480;7.208;2024-02-26T18:57:57;9.50;;;7.00;;
321;SDS011;148;51.480;7.208;2024-02-26T19:00:26;15.97;;;7.13;;
321;SDS011;148;51.480;7.208;2024-02-26T19:02:52;11.90;;;7.23;;
321;SDS011;148;51.480;7.208;2024-02-26T19:10:13;15.57;;;8.60;;
321;SDS011;148;51.480;7.208;2024-02-26T19:12:38;17.00;;;8.87;;
321;SDS011;148;51.480;7.208;2024-02-26T19:15:05;18.40;;;8.80;;
321;SDS011;148;51.480;7.208;2024-02-26T19:19:57;16.90;;;9.50;;
321;SDS011;148;51.480;7.208;2024-02-26T19:22:23;15.30;;;8.50;;
321;SDS011;148;51.480;7.208;2024-02-26T19:24:49;20.20;;;9.30;;
321;SDS011;148;51.480;7.208;2024-02-26T19:27:16;17.20;;;9.17;;
321;SDS011;148;51.480;7.208;2024-02-26T19:29:41;18.57;;;9.87;;
321;SDS011;148;51.480;7.208;2024-02-26T19:32:07;17.40;;;9.60;;
321;SDS011;148;51.480;7.208;2024-02-26T19:34:36;18.70;;;9.37;;
321;SDS011;148;51.480;7.208;2024-02-26T19:37:03;21.30;;;10.67;;
321;SDS011;148;51.480;7.208;2024-02-26T19:39:30;21.83;;;12.10;;
321;SDS011;148;51.480;7.208;2024-02-26T19:41:57;20.57;;;11.50;;
321;SDS011;148;51.480;7.208;2024-02-26T19:44:23;18.90;;;10.70;;
321;SDS011;148;51.480;7.208;2024-02-26T19:46:49;27.57;;;10.87;;
321;SDS011;148;51.480;7.208;2024-02-26T19:49:16;19.17;;;10.50;;
321;SDS011;148;51.480;7.208;2024-02-26T19:51:44;18.43;;;10.70;;
321;SDS011;148;51.480;7.208;2024-02-26T19:54:12;21.40;;;11.20;;
321;SDS011;148;51.480;7.208;2024-02-26T19:56:38;17.03;;;10.50;;
321;SDS011;148;51.480;7.208;2024-02-26T19:59:03;20.15;;;10.80;;
321;SDS011;148;51.480;7.208;2024-02-26T20:01:29;22.07;;;11.50;;
321;SDS011;148;51.480;7.208;2024-02-26T20:04:02;21.43;;;11.60;;
321;SDS011;148;51.480;7.208;2024-02-26T20:06:28;18.87;;;10.20;;
321;SDS011;148;51.480;7.208;2024-02-26T20:08:54;24.20;;;11.40;;
321;SDS011;148;51.480;7.208;2024-02-26T20:11:19;25.73;;;11.30;;
321;SDS011;148;51.480;7.208;2024-02-26T20:13:45;21.50;;;11.83;;
321;SDS011;148;51.480;7.208;2024-02-26T20:16:11;20.63;;;10.50;;
321;SDS011;148;51.480;7.208;2024-02-26T20:18:37;26.07;;;11.60;;
321;SDS011;148;51.480;7.208;2024-02-26T20:21:03;21.13;;;12.00;;
321;SDS011;148;51.480;7.208;2024-02-26T20:23:29;21.03;;;11.00;;
321;SDS011;148;51.480;7.208;2024-02-26T20:25:54;19.30;;;11.10;;
321;SDS011;148;51.480;7.208;2024-02-26T20:28:23;22.10;;;11.10;;
321;SDS011;148;51.480;7.208;2024-02-26T20:30:49;22.43;;;11.37;;
321;SDS011;148;51.480;7.208;2024-02-26T20:33:14;23.67;;;12.20;;
321;SDS011;148;51.480;7.208;2024-02-26T20:35:40;27.23;;;11.83;;
321;SDS011;148;51.480;7.208;2024-02-26T20:38:05;23.55;;;11.45;;
321;SDS011;148;51.480;7.208;2024-02-26T20:40:31;26.30;;;11.50;;
321;SDS011;148;51.480;7.208;2024-02-26T20:45:22;19.57;;;11.60;;
321;SDS011;148;51.480;7.208;2024-02-26T20:52:49;21.50;;;12.63;;
321;SDS011;148;51.480;7.208;2024-02-26T20:57:41;20.40;;;11.00;;
321;SDS011;148;51.480;7.208;2024-02-26T21:00:08;24.47;;;12.83;;
321;SDS011;148;51.480;7.208;2024-02-26T21:02:35;25.30;;;12.30;;
321;SDS011;148;51.480;7.208;2024-02-26T21:05:01;25.63;;;12.97;;
321;SDS011;148;51.480;7.208;2024-02-26T21:07:26;23.13;;;12.03;;
321;SDS011;148;51.480;7.208;2024-02-26T21:09:52;23.10;;;12.60;;
321;SDS011;148;51.480;7.208;2024-02-26T21:12:19;26.33;;;13.60;;
321;SDS011;148;51.480;7.208;2024-02-26T21:14:44;25.07;;;12.63;;
321;SDS011;148;51.480;7.208;2024-02-26T21:17:10;25.07;;;14.63;;
321;SDS011;148;51.480;7.208;2024-02-26T21:19:35;27.83;;;14.33;;
321;SDS011;148;51.480;7.208;2024-02-26T21:22:01;24.70;;;12.57;;
321;SDS011;148;51.480;7.208;2024-02-26T21:24:27;32.23;;;14.87;;
321;SDS011;148;51.480;7.208;2024-02-26T21:26:52;28.00;;;14.70;;
321;SDS011;148;51.480;7.208;2024-02-26T21:29:18;31.23;;;16.87;;
321;SDS011;148;51.480;7.208;2024-02-26T21:31:44;27.33;;;14.23;;
321;SDS011;148;51.480;7.208;2024-02-26T21:34:09;31.00;;;15.10;;
321;SDS011;148;51.480;7.208;2024-02-26T21:36:35;28.70;;;14.80;;
321;SDS011;148;51.480;7.208;2024-02-26T21:39:01;28.63;;;15.47;;
321;SDS011;148;51.480;7.208;2024-02-26T21:41:30;33.37;;;16.30;;
321;SDS011;148;51.480;7.208;2024-02-26T21:43:56;30.03;;;16.73;;
321;SDS011;148;51.480;7.208;2024-02-26T21:46:23;31.50;;;16.33;;
321;SDS011;148;51.480;7.208;2024-02-26T21:48:49;30.50;;;16.07;;
321;SDS011;148;51.480;7.208;2024-02-26T21:51:14;37.07;;;19.43;;
321;SDS011;148;51.480;7.208;2024-02-26T21:53:40;33.20;;;16.90;;
321;SDS011;148;51.480;7.208;2024-02-26T21:56:06;40.13;;;20.23;;
321;SDS011;148;51.480;7.208;2024-02-26T21:58:32;34.67;;;18.60;;
321;SDS011;148;51.480;7.208;2024-02-26T22:00:58;33.87;;;17.10;;
321;SDS011;148;51.480;7.208;2024-02-26T22:03:23;39.10;;;17.00;;
321;SDS011;148;51.480;7.208;2024-02-26T22:09:11;26.77;;;14.43;;
321;SDS011;148;51.480;7.208;2024-02-26T22:11:40;37.30;;;17.20;;
321;SDS011;148;51.480;7.208;2024-02-26T22:14:08;34.67;;;17.10;;
321;SDS011;148;51.480;7.208;2024-02-26T22:16:33;41.43;;;18.47;;
321;SDS011;148;51.480;7.208;2024-02-26T22:18:59;38.97;;;18.57;;
321;SDS011;148;51.480;7.208;2024-02-26T22:21:31;41.13;;;18.03;;
321;SDS011;148;51.480;7.208;2024-02-26T22:23:58;36.00;;;16.37;;
321;SDS011;148;51.480;7.208;2024-02-26T22:26:24;38.67;;;18.50;;
321;SDS011;148;51.480;7.208;2024-02-26T22:28:50;35.07;;;18.53;;
321;SDS011;148;51.480;7.208;2024-02-26T22:31:16;36.50;;;16.93;;
321;SDS011;148;51.480;7.208;2024-02-26T22:33:43;43.77;;;19.40;;
321;SDS011;148;51.480;7.208;2024-02-26T22:36:08;40.27;;;18.63;;
321;SDS011;148;51.480;7.208;2024-02-26T22:38:34;37.63;;;18.77;;
321;SDS011;148;51.480;7.208;2024-02-26T22:46:58;40.40;;;19.70;;
321;SDS011;148;51.480;7.208;2024-02-26T22:54:15;35.60;;;17.70;;
321;SDS011;148;51.480;7.208;2024-02-26T22:56:41;41.90;;;18.60;;
321;SDS011;148;51.480;7.208;2024-02-26T22:59:09;38.63;;;18.33;;
321;SDS011;148;51.480;7.208;2024-02-26T23:01:35;37.77;;;18.07;;
321;SDS011;148;51.480;7.208;2024-02-26T23:04:01;39.67;;;18.70;;
321;SDS011;148;51.480;7.208;2024-02-26T23:06:27;39.00;;;19.17;;
321;SDS011;148;51.480;7.208;2024-02-26T23:08:53;39.17;;;18.60;;
321;SDS011;148;51.480;7.208;2024-02-26T23:11:18;43.27;;;21.40;;
321;SDS011;148;51.480;7.208;2024-02-26T23:13:44;42.10;;;18.20;;
321;SDS011;148;51.480;7.208;2024-02-26T23:19:14;42.77;;;18.93;;
321;SDS011;148;51.480;7.208;2024-02-26T23:21:40;36.83;;;18.83;;
321;SDS011;148;51.480;7.208;2024-02-26T23:24:07;42.57;;;19.67;;
321;SDS011;148;51.480;7.208;2024-02-26T23:26:33;37.70;;;16.87;;
321;SDS011;148;51.480;7.208;2024-02-26T23:28:58;43.10;;;19.10;;
321;SDS011;148;51.480;7.208;2024-02-26T23:31:24;41.50;;;20.10;;
321;SDS011;148;51.480;7.208;2024-02-26T23:33:49;41.40;;;19.80;;
321;SDS011;148;51.480;7.208;2024-02-26T23:36:15;40.65;;;19.60;;
321;SDS011;148;51.480;7.208;2024-02-26T23:38:41;42.80;;;18.95;;
321;SDS011;148;51.480;7.208;2024-02-26T23:43:32;43.27;;;19.70;;
321;SDS011;148;51.480;7.208;2024-02-26T23:45:58;42.03;;;19.07;;
321;SDS011;148;51.480;7.208;2024-02-26T23:48:23;37.73;;;19.10;;
321;SDS011;148;51.480;7.208;2024-02-26T23:50:49;40.37;;;19.57;;
321;SDS011;148;51.480;7.208;2024-02-26T23:53:14;44.17;;;20.00;;
321;SDS011;148;51.480;7.208;2024-02-26T23:55:40;38.50;;;18.97;;
321;SDS011;148;51.480;7.208;2024-02-26T23:58:06;38.03;;;18.13;;
